Time,TemperatureF,DewpointF,PressureIn,WindDirection,WindDirectionDegrees,WindSpeedMPH,WindSpeedGustMPH,Humidity,HourlyPrecipIn,Conditions,Clouds,dailyrainin,SoftwareType,DateUTC
2013-07-05 00:01:00,72.9,64.9,30.20,NNE,18,0.0,0.0,76,0.00,,---,0.00,VWS V13.01,2013-07-05 04:01:00,
2013-07-05 00:06:00,72.9,64.9,30.20,North,4,2.7,2.7,76,0.00,,---,0.00,VWS V13.01,2013-07-05 04:06:00,
2013-07-05 00:11:00,73.0,65.0,30.20,NNE,32,0.0,0.0,76,0.00,,---,0.00,VWS V13.01,2013-07-05 04:11:00,
2013-07-05 00:16:00,72.9,64.5,30.20,North,9,0.0,0.0,75,0.00,,---,0.00,VWS V13.01,2013-07-05 04:16:00,
2013-07-05 00:21:00,73.0,64.7,30.20,North,357,0.0,0.0,75,0.00,,---,0.00,VWS V13.01,2013-07-05 04:21:00,
2013-07-05 00:26:00,73.0,64.7,30.23,North,357,0.0,0.0,75,0.00,,---,0.00,VWS V13.01,2013-07-05 04:26:00,
2013-07-05 00:31:00,72.9,64.1,30.23,North,357,0.0,0.0,74,0.00,,---,0.00,VWS V13.01,2013-07-05 04:31:00,
2013-07-05 00:36:00,72.9,64.1,30.20,North,357,0.0,0.0,74,0.00,,---,0.00,VWS V13.01,2013-07-05 04:36:00,
2013-07-05 00:41:00,72.7,63.5,30.20,North,357,0.0,0.0,73,0.00,,---,0.00,VWS V13.01,2013-07-05 04:41:00,
2013-07-05 00:46:00,72.7,63.5,30.20,North,357,0.0,0.0,73,0.00,,---,0.00,VWS V13.01,2013-07-05 04:46:00,
2013-07-05 00:51:00,72.7,63.5,30.20,North,357,0.0,0.0,73,0.00,,---,0.00,VWS V13.01,2013-07-05 04:51:00,
2013-07-05 00:56:00,72.5,63.0,30.20,North,357,0.0,0.0,72,0.00,,---,0.00,VWS V13.01,2013-07-05 04:56:00,
2013-07-05 01:01:00,72.5,63.0,30.20,North,357,0.0,0.0,72,0.00,,---,0.00,VWS V13.01,2013-07-05 05:01:00,
2013-07-05 01:06:00,72.3,62.8,30.20,North,357,0.0,0.0,72,0.00,,---,0.00,VWS V13.01,2013-07-05 05:06:00,
2013-07-05 01:11:00,72.3,62.8,30.20,North,357,0.0,0.0,72,0.00,,---,0.00,VWS V13.01,2013-07-05 05:11:00,
2013-07-05 01:16:00,72.1,62.6,30.20,North,357,0.0,0.0,72,0.00,,---,0.00,VWS V13.01,2013-07-05 05:16:00,
2013-07-05 01:21:00,72.1,62.6,30.20,North,7,0.0,0.0,72,0.00,,---,0.00,VWS V13.01,2013-07-05 05:21:00,
2013-07-05 01:26:00,72.1,62.6,30.20,North,7,0.0,0.0,72,0.00,,---,0.00,VWS V13.01,2013-07-05 05:26:00,
2013-07-05 01:31:00,72.0,62.0,30.20,North,6,2.7,3.1,71,0.00,,---,0.00,VWS V13.01,2013-07-05 05:31:00,
2013-07-05 01:36:00,71.8,61.9,30.20,North,8,0.0,0.0,71,0.00,,---,0.00,VWS V13.01,2013-07-05 05:36:00,
2013-07-05 01:41:00,71.8,61.9,30.20,North,9,3.1,3.1,71,0.00,,---,0.00,VWS V13.01,2013-07-05 05:41:00,
2013-07-05 01:46:00,71.8,61.9,30.20,North,9,0.0,0.0,71,0.00,,---,0.00,VWS V13.01,2013-07-05 05:46:00,
2013-07-05 01:51:00,71.8,61.9,30.20,North,8,0.0,0.0,71,0.00,,---,0.00,VWS V13.01,2013-07-05 05:51:00,
2013-07-05 01:56:00,71.8,61.9,30.20,North,6,0.0,2.7,71,0.00,,---,0.00,VWS V13.01,2013-07-05 05:56:00,
2013-07-05 02:01:00,71.6,61.7,30.20,North,6,0.0,0.0,71,0.00,,---,0.00,VWS V13.01,2013-07-05 06:01:00,
2013-07-05 02:06:00,71.6,61.7,30.20,North,6,0.0,0.0,71,0.00,,---,0.00,VWS V13.01,2013-07-05 06:06:00,
2013-07-05 02:11:00,71.6,61.3,30.20,North,6,0.0,0.0,70,0.00,,---,0.00,VWS V13.01,2013-07-05 06:11:00,
2013-07-05 02:16:00,71.4,61.5,30.20,North,6,0.0,0.0,71,0.00,,---,0.00,VWS V13.01,2013-07-05 06:16:00,
2013-07-05 02:21:00,71.4,61.5,30.20,NNE,15,0.0,3.6,71,0.00,,---,0.00,VWS V13.01,2013-07-05 06:21:00,
2013-07-05 02:26:00,71.4,61.5,30.20,NNE,15,2.7,2.7,71,0.00,,---,0.00,VWS V13.01,2013-07-05 06:26:00,
2013-07-05 02:31:00,71.4,61.5,30.20,NNE,15,0.0,0.0,71,0.00,,---,0.00,VWS V13.01,2013-07-05 06:31:00,
2013-07-05 02:36:00,71.4,61.5,30.20,NNE,15,0.0,0.0,71,0.00,,---,0.00,VWS V13.01,2013-07-05 06:36:00,
2013-07-05 02:41:00,71.2,61.4,30.20,NNE,15,0.0,0.0,71,0.00,,---,0.00,VWS V13.01,2013-07-05 06:41:00,
2013-07-05 02:46:00,71.2,61.4,30.20,NNE,15,0.0,0.0,71,0.00,,---,0.00,VWS V13.01,2013-07-05 06:46:00,
2013-07-05 02:51:00,71.2,61.4,30.20,NNE,15,0.0,0.0,71,0.00,,---,0.00,VWS V13.01,2013-07-05 06:51:00,
2013-07-05 02:56:00,71.1,61.2,30.20,NNE,15,0.0,0.0,71,0.00,,---,0.00,VWS V13.01,2013-07-05 06:56:00,
2013-07-05 03:01:00,71.1,61.2,30.20,NNE,15,0.0,0.0,71,0.00,,---,0.00,VWS V13.01,2013-07-05 07:01:00,
2013-07-05 03:06:00,71.1,61.6,30.20,NNE,15,0.0,0.0,72,0.00,,---,0.00,VWS V13.01,2013-07-05 07:06:00,
2013-07-05 03:11:00,71.1,61.6,30.20,NNE,15,0.0,0.0,72,0.00,,---,0.00,VWS V13.01,2013-07-05 07:11:00,
2013-07-05 03:16:00,71.1,61.6,30.20,NNE,15,0.0,0.0,72,0.00,,---,0.00,VWS V13.01,2013-07-05 07:16:00,
2013-07-05 03:21:00,71.1,61.6,30.20,NNE,15,0.0,0.0,72,0.00,,---,0.00,VWS V13.01,2013-07-05 07:21:00,
2013-07-05 03:26:00,71.1,61.6,30.20,NNE,15,0.0,0.0,72,0.00,,---,0.00,VWS V13.01,2013-07-05 07:26:00,
2013-07-05 03:31:00,71.2,62.2,30.20,NNE,15,0.0,0.0,73,0.00,,---,0.00,VWS V13.01,2013-07-05 07:31:00,
2013-07-05 03:36:00,71.2,62.2,30.20,NNE,15,0.0,0.0,73,0.00,,---,0.00,VWS V13.01,2013-07-05 07:36:00,
2013-07-05 03:41:00,71.2,62.2,30.20,NNE,15,0.0,0.0,73,0.00,,---,0.00,VWS V13.01,2013-07-05 07:41:00,
2013-07-05 03:46:00,71.2,62.2,30.20,NNE,15,0.0,0.0,73,0.00,,---,0.00,VWS V13.01,2013-07-05 07:46:00,
2013-07-05 03:51:00,71.2,62.2,30.20,NNE,15,0.0,0.0,73,0.00,,---,0.00,VWS V13.01,2013-07-05 07:51:00,
2013-07-05 03:56:00,71.2,62.2,30.20,NNE,15,0.0,0.0,73,0.00,,---,0.00,VWS V13.01,2013-07-05 07:56:00,
2013-07-05 04:01:00,71.2,62.2,30.20,NNE,15,0.0,0.0,73,0.00,,---,0.00,VWS V13.01,2013-07-05 08:01:00,
2013-07-05 04:06:00,71.2,62.2,30.20,NNE,15,0.0,0.0,73,0.00,,---,0.00,VWS V13.01,2013-07-05 08:06:00,
2013-07-05 04:11:00,71.2,62.2,30.20,NNE,15,0.0,0.0,73,0.00,,---,0.00,VWS V13.01,2013-07-05 08:11:00,
2013-07-05 04:16:00,71.2,62.2,30.20,NNE,15,0.0,0.0,73,0.00,,---,0.00,VWS V13.01,2013-07-05 08:16:00,
2013-07-05 04:21:00,71.2,62.2,30.20,NNE,15,0.0,0.0,73,0.00,,---,0.00,VWS V13.01,2013-07-05 08:21:00,
2013-07-05 04:26:00,71.2,62.2,30.20,NNE,15,0.0,0.0,73,0.00,,---,0.00,VWS V13.01,2013-07-05 08:26:00,
2013-07-05 04:31:00,71.2,62.2,30.20,NNE,15,0.0,0.0,73,0.00,,---,0.00,VWS V13.01,2013-07-05 08:31:00,
2013-07-05 04:36:00,71.2,62.2,30.20,NNE,15,0.0,0.0,73,0.00,,---,0.00,VWS V13.01,2013-07-05 08:36:00,
2013-07-05 04:41:00,71.2,62.2,30.20,NNE,15,0.0,0.0,73,0.00,,---,0.00,VWS V13.01,2013-07-05 08:41:00,
2013-07-05 04:46:00,71.2,62.2,30.20,NNE,15,0.0,0.0,73,0.00,,---,0.00,VWS V13.01,2013-07-05 08:46:00,
2013-07-05 04:51:00,71.2,62.2,30.20,NNE,15,0.0,0.0,73,0.00,,---,0.00,VWS V13.01,2013-07-05 08:51:00,
2013-07-05 04:56:00,71.2,62.2,30.20,NNE,15,0.0,0.0,73,0.00,,---,0.00,VWS V13.01,2013-07-05 08:56:00,
2013-07-05 05:01:00,71.2,62.2,30.20,NNE,15,0.0,0.0,73,0.00,,---,0.00,VWS V13.01,2013-07-05 09:01:00,
2013-07-05 05:07:00,71.1,62.0,30.20,NNE,15,0.0,0.0,73,0.00,,---,0.00,VWS V13.01,2013-07-05 09:07:00,
2013-07-05 05:12:00,71.1,62.0,30.20,NNE,15,0.0,0.0,73,0.00,,---,0.00,VWS V13.01,2013-07-05 09:12:00,
2013-07-05 05:17:00,71.1,62.0,30.20,NNE,15,0.0,0.0,73,0.00,,---,0.00,VWS V13.01,2013-07-05 09:17:00,
2013-07-05 05:23:00,71.1,62.0,30.20,NNE,15,0.0,0.0,73,0.00,,---,0.00,VWS V13.01,2013-07-05 09:23:00,
2013-07-05 05:28:00,71.1,62.0,30.20,NNE,19,0.0,0.0,73,0.00,,---,0.00,VWS V13.01,2013-07-05 09:28:00,
2013-07-05 05:33:00,70.9,61.8,30.20,NNE,19,0.0,0.0,73,0.00,,---,0.00,VWS V13.01,2013-07-05 09:33:00,
2013-07-05 05:38:00,70.9,61.8,30.20,NNE,17,0.0,0.0,73,0.00,,---,0.00,VWS V13.01,2013-07-05 09:38:00,
2013-07-05 05:43:00,70.7,61.6,30.20,North,3,0.0,0.0,73,0.00,,---,0.00,VWS V13.01,2013-07-05 09:43:00,
2013-07-05 05:48:00,70.5,61.5,30.20,North,3,0.0,0.0,73,0.00,,---,0.00,VWS V13.01,2013-07-05 09:48:00,
2013-07-05 05:53:00,70.5,61.5,30.20,North,3,0.0,0.0,73,0.00,,---,0.00,VWS V13.01,2013-07-05 09:53:00,
2013-07-05 05:58:00,70.3,61.3,30.20,North,3,0.0,0.0,73,0.00,,---,0.00,VWS V13.01,2013-07-05 09:58:00,
2013-07-05 06:04:00,70.5,61.8,30.20,North,3,0.0,0.0,74,0.00,,---,0.00,VWS V13.01,2013-07-05 10:04:00,
2013-07-05 06:09:00,70.5,61.8,30.20,North,3,0.0,0.0,74,0.00,,---,0.00,VWS V13.01,2013-07-05 10:09:00,
2013-07-05 06:14:00,70.7,62.0,30.20,North,3,0.0,0.0,74,0.00,,---,0.00,VWS V13.01,2013-07-05 10:14:00,
2013-07-05 06:19:00,70.7,62.0,30.20,North,3,0.0,0.0,74,0.00,,---,0.00,VWS V13.01,2013-07-05 10:19:00,
2013-07-05 06:24:00,70.7,62.0,30.20,North,3,0.0,0.0,74,0.00,,---,0.00,VWS V13.01,2013-07-05 10:24:00,
2013-07-05 06:29:00,70.9,62.2,30.20,North,2,0.0,0.0,74,0.00,,---,0.00,VWS V13.01,2013-07-05 10:29:00,
2013-07-05 06:34:00,70.9,62.2,30.20,North,0,0.0,0.0,74,0.00,,---,0.00,VWS V13.01,2013-07-05 10:34:00,
2013-07-05 06:39:00,70.9,62.2,30.20,North,0,0.0,0.0,74,0.00,,---,0.00,VWS V13.01,2013-07-05 10:39:00,
2013-07-05 06:44:00,70.9,62.2,30.20,North,0,0.0,0.0,74,0.00,,---,0.00,VWS V13.01,2013-07-05 10:44:00,
2013-07-05 06:49:00,71.1,62.4,30.20,North,0,0.0,0.0,74,0.00,,---,0.00,VWS V13.01,2013-07-05 10:49:00,
2013-07-05 06:54:00,71.1,62.4,30.20,ENE,63,0.0,0.0,74,0.00,,---,0.00,VWS V13.01,2013-07-05 10:54:00,
2013-07-05 06:59:00,71.2,62.5,30.20,ENE,62,0.0,0.0,74,0.00,,---,0.00,VWS V13.01,2013-07-05 10:59:00,
2013-07-05 07:04:00,71.2,62.5,30.20,ENE,60,0.0,0.0,74,0.00,,---,0.00,VWS V13.01,2013-07-05 11:04:00,
2013-07-05 07:09:00,71.2,62.5,30.20,North,11,0.0,0.0,74,0.00,,---,0.00,VWS V13.01,2013-07-05 11:09:00,
2013-07-05 07:15:00,71.4,62.7,30.20,North,357,0.0,0.0,74,0.00,,---,0.00,VWS V13.01,2013-07-05 11:15:00,
2013-07-05 07:20:00,71.6,62.9,30.20,NNW,344,0.0,0.0,74,0.00,,---,0.00,VWS V13.01,2013-07-05 11:20:00,
2013-07-05 07:25:00,71.8,63.1,30.23,NNW,344,0.0,0.0,74,0.00,,---,0.00,VWS V13.01,2013-07-05 11:25:00,
2013-07-05 07:30:00,71.8,63.1,30.23,NNW,331,3.6,3.6,74,0.00,,---,0.00,VWS V13.01,2013-07-05 11:30:00,
2013-07-05 07:35:00,72.0,63.2,30.23,North,357,0.0,0.0,74,0.00,,---,0.00,VWS V13.01,2013-07-05 11:35:00,
2013-07-05 07:40:00,72.1,63.4,30.23,North,0,0.0,0.0,74,0.00,,---,0.00,VWS V13.01,2013-07-05 11:40:00,
2013-07-05 07:45:00,72.1,63.4,30.23,North,0,0.0,0.0,74,0.00,,---,0.00,VWS V13.01,2013-07-05 11:45:00,
2013-07-05 07:50:00,72.1,63.4,30.23,NNE,13,0.0,0.0,74,0.00,,---,0.00,VWS V13.01,2013-07-05 11:50:00,
2013-07-05 07:56:00,72.5,63.8,30.23,North,10,0.0,0.0,74,0.00,,---,0.00,VWS V13.01,2013-07-05 11:56:00,
2013-07-05 08:01:00,72.7,64.3,30.23,North,8,0.0,2.2,75,0.00,,---,0.00,VWS V13.01,2013-07-05 12:01:00,
2013-07-05 08:06:00,72.9,64.5,30.23,North,8,0.0,0.0,75,0.00,,---,0.00,VWS V13.01,2013-07-05 12:06:00,
2013-07-05 08:11:00,73.0,64.3,30.23,North,357,4.0,4.0,74,0.00,,---,0.00,VWS V13.01,2013-07-05 12:11:00,
2013-07-05 08:16:00,73.0,64.3,30.23,NE,42,0.0,0.0,74,0.00,,---,0.00,VWS V13.01,2013-07-05 12:16:00,
2013-07-05 08:21:00,73.2,64.4,30.23,WNW,295,0.0,2.2,74,0.00,,---,0.00,VWS V13.01,2013-07-05 12:21:00,
2013-07-05 08:26:00,73.4,64.6,30.23,NW,307,0.0,0.0,74,0.00,,---,0.00,VWS V13.01,2013-07-05 12:26:00,
2013-07-05 08:32:00,73.6,64.8,30.23,NNE,22,0.0,0.0,74,0.00,,---,0.00,VWS V13.01,2013-07-05 12:32:00,
2013-07-05 08:37:00,73.9,65.1,30.23,NNE,16,0.0,3.6,74,0.00,,---,0.00,VWS V13.01,2013-07-05 12:37:00,
2013-07-05 08:42:00,74.3,65.1,30.23,North,2,3.1,3.6,73,0.00,,---,0.00,VWS V13.01,2013-07-05 12:42:00,
2013-07-05 08:47:00,74.7,65.4,30.23,North,0,0.0,0.0,73,0.00,,---,0.00,VWS V13.01,2013-07-05 12:47:00,
2013-07-05 08:52:00,75.0,65.4,30.23,North,357,2.2,3.6,72,0.00,,---,0.00,VWS V13.01,2013-07-05 12:52:00,
2013-07-05 08:57:00,75.6,65.5,30.23,NNE,12,3.1,3.6,71,0.00,,---,0.00,VWS V13.01,2013-07-05 12:57:00,
2013-07-05 09:02:00,75.7,65.3,30.23,NNE,14,3.1,3.1,70,0.00,,---,0.00,VWS V13.01,2013-07-05 13:02:00,
2013-07-05 09:07:00,75.9,65.0,30.23,North,353,2.7,2.7,69,0.00,,---,0.00,VWS V13.01,2013-07-05 13:07:00,
2013-07-05 09:12:00,75.7,64.4,30.23,North,11,2.7,5.8,68,0.00,,---,0.00,VWS V13.01,2013-07-05 13:12:00,
2013-07-05 09:18:00,75.6,63.8,30.23,North,7,3.1,3.6,67,0.00,,---,0.00,VWS V13.01,2013-07-05 13:18:00,
2013-07-05 09:23:00,75.6,63.8,30.23,North,5,0.0,0.0,67,0.00,,---,0.00,VWS V13.01,2013-07-05 13:23:00,
2013-07-05 09:28:00,75.9,64.2,30.23,NNE,17,3.6,3.6,67,0.00,,---,0.00,VWS V13.01,2013-07-05 13:28:00,
2013-07-05 09:33:00,76.5,64.7,30.23,North,6,0.0,2.7,67,0.00,,---,0.00,VWS V13.01,2013-07-05 13:33:00,
2013-07-05 09:38:00,76.6,64.4,30.23,NNW,348,3.1,3.6,66,0.00,,---,0.00,VWS V13.01,2013-07-05 13:38:00,
2013-07-05 09:43:00,77.0,64.3,30.23,North,0,4.0,4.0,65,0.00,,---,0.00,VWS V13.01,2013-07-05 13:43:00,
2013-07-05 09:48:00,77.2,64.1,30.23,NNE,15,0.0,2.2,64,0.00,,---,0.00,VWS V13.01,2013-07-05 13:48:00,
2013-07-05 09:53:00,77.4,61.9,30.23,North,357,2.7,4.0,59,0.00,,---,0.00,VWS V13.01,2013-07-05 13:53:00,
2013-07-05 09:59:00,77.5,62.6,30.23,North,357,2.7,2.7,60,0.00,,---,0.00,VWS V13.01,2013-07-05 13:59:00,
2013-07-05 10:04:00,77.5,62.1,30.23,NNW,344,0.0,0.0,59,0.00,,---,0.00,VWS V13.01,2013-07-05 14:04:00,
2013-07-05 10:09:00,77.9,62.9,30.23,North,6,2.7,3.1,60,0.00,,---,0.00,VWS V13.01,2013-07-05 14:09:00,
2013-07-05 10:14:00,78.4,62.0,30.23,North,357,4.0,4.0,57,0.00,,---,0.00,VWS V13.01,2013-07-05 14:14:00,
2013-07-05 10:19:00,79.2,62.6,30.23,ENE,76,0.0,0.0,57,0.00,,---,0.00,VWS V13.01,2013-07-05 14:19:00,
2013-07-05 10:24:00,79.7,62.6,30.23,North,357,2.7,2.7,56,0.00,,---,0.00,VWS V13.01,2013-07-05 14:24:00,
2013-07-05 10:29:00,80.2,62.1,30.23,ENE,59,0.0,3.6,54,0.00,,---,0.00,VWS V13.01,2013-07-05 14:29:00,
2013-07-05 10:34:00,80.2,61.6,30.23,NNE,15,0.0,0.0,53,0.00,,---,0.00,VWS V13.01,2013-07-05 14:34:00,
2013-07-05 10:39:00,80.8,61.5,30.23,NNE,18,0.0,3.6,52,0.00,,---,0.00,VWS V13.01,2013-07-05 14:39:00,
2013-07-05 10:44:00,81.1,61.9,30.23,North,7,2.7,3.6,52,0.00,,---,0.00,VWS V13.01,2013-07-05 14:44:00,
2013-07-05 10:49:00,81.7,60.7,30.23,North,0,2.2,2.2,49,0.00,,---,0.00,VWS V13.01,2013-07-05 14:49:00,
2013-07-05 10:54:00,82.4,59.6,30.23,NNE,17,3.6,3.6,46,0.00,,---,0.00,VWS V13.01,2013-07-05 14:54:00,
2013-07-05 10:59:00,82.8,59.9,30.23,North,353,0.0,3.6,46,0.00,,---,0.00,VWS V13.01,2013-07-05 14:59:00,
2013-07-05 11:04:00,83.5,59.3,30.23,North,8,3.1,3.1,44,0.00,,---,0.00,VWS V13.01,2013-07-05 15:04:00,
2013-07-05 11:09:00,83.7,59.5,30.23,NNE,24,3.6,4.0,44,0.00,,---,0.00,VWS V13.01,2013-07-05 15:09:00,
2013-07-05 11:14:00,84.4,60.1,30.23,NNE,26,0.0,3.6,44,0.00,,---,0.00,VWS V13.01,2013-07-05 15:14:00,
2013-07-05 11:19:00,84.2,58.6,30.23,NE,47,0.0,0.0,42,0.00,,---,0.00,VWS V13.01,2013-07-05 15:19:00,
2013-07-05 11:24:00,84.0,57.8,30.23,North,9,3.1,3.6,41,0.00,,---,0.00,VWS V13.01,2013-07-05 15:24:00,
2013-07-05 11:29:00,84.4,58.1,30.23,North,357,3.6,5.4,41,0.00,,---,0.00,VWS V13.01,2013-07-05 15:29:00,
2013-07-05 11:34:00,84.4,58.1,30.23,North,357,2.2,2.7,41,0.00,,---,0.00,VWS V13.01,2013-07-05 15:34:00,
2013-07-05 11:39:00,84.7,59.1,30.23,NNE,28,2.7,2.7,42,0.00,,---,0.00,VWS V13.01,2013-07-05 15:39:00,
2013-07-05 11:44:00,84.6,58.3,30.23,North,4,2.2,2.2,41,0.00,,---,0.00,VWS V13.01,2013-07-05 15:44:00,
2013-07-05 11:49:00,84.7,57.1,30.23,North,0,0.0,2.7,39,0.00,,---,0.00,VWS V13.01,2013-07-05 15:49:00,
2013-07-05 11:54:00,84.6,57.6,30.23,North,7,2.2,3.1,40,0.00,,---,0.00,VWS V13.01,2013-07-05 15:54:00,
2013-07-05 11:59:00,85.1,58.8,30.23,NW,324,3.1,3.6,41,0.00,,---,0.00,VWS V13.01,2013-07-05 15:59:00,
2013-07-05 12:04:00,85.8,58.0,30.23,North,1,0.0,2.7,39,0.00,,---,0.00,VWS V13.01,2013-07-05 16:04:00,
2013-07-05 12:09:00,84.7,57.8,30.23,NNW,339,0.0,0.0,40,0.00,,---,0.00,VWS V13.01,2013-07-05 16:09:00,
2013-07-05 12:14:00,84.4,58.1,30.23,North,1,3.1,3.1,41,0.00,,---,0.00,VWS V13.01,2013-07-05 16:14:00,
2013-07-05 12:19:00,84.7,58.5,30.23,East,89,0.0,2.2,41,0.00,,---,0.00,VWS V13.01,2013-07-05 16:19:00,
2013-07-05 12:24:00,83.8,57.0,30.23,North,7,0.0,0.0,40,0.00,,---,0.00,VWS V13.01,2013-07-05 16:24:00,
2013-07-05 12:29:00,82.4,58.3,30.23,SSE,164,0.0,0.0,44,0.00,,---,0.00,VWS V13.01,2013-07-05 16:29:00,
2013-07-05 12:34:00,81.9,60.3,30.23,North,6,2.7,4.0,48,0.00,,---,0.00,VWS V13.01,2013-07-05 16:34:00,
2013-07-05 12:39:00,82.9,61.8,30.23,ENE,60,0.0,0.0,49,0.00,,---,0.00,VWS V13.01,2013-07-05 16:39:00,
2013-07-05 12:44:00,84.0,61.6,30.23,North,3,0.0,0.0,47,0.00,,---,0.00,VWS V13.01,2013-07-05 16:44:00,
2013-07-05 12:49:00,84.4,60.7,30.23,NNE,14,0.0,4.0,45,0.00,,---,0.00,VWS V13.01,2013-07-05 16:49:00,
2013-07-05 12:54:00,84.0,57.8,30.20,North,357,3.6,3.6,41,0.00,,---,0.00,VWS V13.01,2013-07-05 16:54:00,
2013-07-05 12:59:00,84.4,58.8,30.20,North,3,0.0,0.0,42,0.00,,---,0.00,VWS V13.01,2013-07-05 16:59:00,
2013-07-05 13:04:00,85.3,58.2,30.20,North,6,2.7,3.6,40,0.00,,---,0.00,VWS V13.01,2013-07-05 17:04:00,
2013-07-05 13:09:00,84.9,55.8,30.20,North,3,0.0,3.1,37,0.00,,---,0.00,VWS V13.01,2013-07-05 17:09:00,
2013-07-05 13:14:00,84.9,56.5,30.20,North,8,4.9,5.8,38,0.00,,---,0.00,VWS V13.01,2013-07-05 17:14:00,
2013-07-05 13:19:00,84.7,56.3,30.20,NNE,22,3.1,3.1,38,0.00,,---,0.00,VWS V13.01,2013-07-05 17:19:00,
2013-07-05 13:24:00,84.6,56.9,30.20,North,8,0.0,0.0,39,0.00,,---,0.00,VWS V13.01,2013-07-05 17:24:00,
2013-07-05 13:29:00,84.2,57.3,30.20,NE,35,0.0,0.0,40,0.00,,---,0.00,VWS V13.01,2013-07-05 17:29:00,
2013-07-05 13:34:00,84.2,57.3,30.20,NE,35,0.0,0.0,40,0.00,,---,0.00,VWS V13.01,2013-07-05 17:34:00,
2013-07-05 13:39:00,84.2,57.3,30.20,NE,35,0.0,0.0,40,0.00,,---,0.00,VWS V13.01,2013-07-05 17:39:00,
2013-07-05 13:44:00,84.2,57.3,30.20,NE,35,0.0,0.0,40,0.00,,---,0.00,VWS V13.01,2013-07-05 17:44:00,
2013-07-05 13:49:00,84.2,57.3,30.20,NE,35,0.0,0.0,40,0.00,,---,0.00,VWS V13.01,2013-07-05 17:49:00,
2013-07-05 13:54:00,84.2,57.3,30.20,NE,35,0.0,0.0,40,0.00,,---,0.00,VWS V13.01,2013-07-05 17:54:00,
2013-07-05 13:59:00,84.2,57.3,30.20,NE,35,0.0,0.0,40,0.00,,---,0.00,VWS V13.01,2013-07-05 17:59:00,
2013-07-05 14:04:00,84.2,57.3,30.20,NE,35,0.0,0.0,40,0.00,,---,0.00,VWS V13.01,2013-07-05 18:04:00,
2013-07-05 14:09:00,84.2,57.3,30.20,NE,35,0.0,0.0,40,0.00,,---,0.00,VWS V13.01,2013-07-05 18:09:00,
2013-07-05 14:14:00,84.2,57.3,30.20,NE,35,0.0,0.0,40,0.00,,---,0.00,VWS V13.01,2013-07-05 18:14:00,
2013-07-05 14:19:00,84.2,57.3,30.20,NE,35,0.0,0.0,40,0.00,,---,0.00,VWS V13.01,2013-07-05 18:19:00,
2013-07-05 14:24:00,84.2,57.3,30.20,NE,35,0.0,0.0,40,0.00,,---,0.00,VWS V13.01,2013-07-05 18:24:00,
2013-07-05 14:30:00,84.2,57.3,30.20,NE,35,0.0,0.0,40,0.00,,---,0.00,VWS V13.01,2013-07-05 18:30:00,
2013-07-05 14:35:00,84.2,57.3,30.20,NE,35,0.0,0.0,40,0.00,,---,0.00,VWS V13.01,2013-07-05 18:35:00,
2013-07-05 14:40:00,84.2,57.3,30.20,NE,35,0.0,0.0,40,0.00,,---,0.00,VWS V13.01,2013-07-05 18:40:00,
2013-07-05 14:45:00,84.2,57.3,30.20,NE,35,0.0,0.0,40,0.00,,---,0.00,VWS V13.01,2013-07-05 18:45:00,
2013-07-05 14:50:00,84.2,57.3,30.20,NE,35,0.0,0.0,40,0.00,,---,0.00,VWS V13.01,2013-07-05 18:50:00,
2013-07-05 14:55:00,84.2,57.3,30.20,NE,35,0.0,0.0,40,0.00,,---,0.00,VWS V13.01,2013-07-05 18:55:00,
2013-07-05 15:00:00,84.2,57.3,30.20,NE,35,0.0,0.0,40,0.00,,---,0.00,VWS V13.01,2013-07-05 19:00:00,
2013-07-05 15:05:00,84.2,57.3,30.20,NE,35,0.0,0.0,40,0.00,,---,0.00,VWS V13.01,2013-07-05 19:05:00,
2013-07-05 15:10:00,84.2,57.3,30.20,NE,35,0.0,0.0,40,0.00,,---,0.00,VWS V13.01,2013-07-05 19:10:00,
2013-07-05 15:15:00,84.2,57.3,30.20,NE,35,0.0,0.0,40,0.00,,---,0.00,VWS V13.01,2013-07-05 19:15:00,
2013-07-05 15:20:00,84.2,57.3,30.20,NE,35,0.0,0.0,40,0.00,,---,0.00,VWS V13.01,2013-07-05 19:20:00,
2013-07-05 15:25:00,84.2,57.3,30.20,NE,35,0.0,0.0,40,0.00,,---,0.00,VWS V13.01,2013-07-05 19:25:00,
2013-07-05 15:30:00,84.2,57.3,30.20,NE,35,0.0,0.0,40,0.00,,---,0.00,VWS V13.01,2013-07-05 19:30:00,
2013-07-05 15:37:00,86.4,59.2,30.17,North,353,0.0,0.0,40,0.00,,---,0.00,VWS V13.01,2013-07-05 19:37:00,
2013-07-05 15:42:00,86.9,59.0,30.17,North,10,2.7,3.6,39,0.00,,---,0.00,VWS V13.01,2013-07-05 19:42:00,
2013-07-05 15:47:00,87.6,59.6,30.17,ESE,107,2.7,4.0,39,0.00,,---,0.00,VWS V13.01,2013-07-05 19:47:00,
2013-07-05 15:52:00,88.7,59.1,30.17,North,357,0.0,3.6,37,0.00,,---,0.00,VWS V13.01,2013-07-05 19:52:00,
2013-07-05 15:57:00,90.1,58.8,30.17,North,5,0.0,0.0,35,0.00,,---,0.00,VWS V13.01,2013-07-05 19:57:00,
2013-07-05 16:02:00,90.9,57.0,30.17,North,353,2.7,3.1,32,0.00,,---,0.00,VWS V13.01,2013-07-05 20:02:00,
2013-07-05 16:07:00,89.8,54.2,30.17,ENE,58,0.0,0.0,30,0.00,,---,0.00,VWS V13.01,2013-07-05 20:07:00,
2013-07-05 16:12:00,88.0,54.5,30.17,North,3,3.6,3.6,32,0.00,,---,0.00,VWS V13.01,2013-07-05 20:12:00,
2013-07-05 16:17:00,87.1,56.1,30.17,North,0,0.0,0.0,35,0.00,,---,0.00,VWS V13.01,2013-07-05 20:17:00,
2013-07-05 16:22:00,88.0,57.7,30.17,North,5,0.0,0.0,36,0.00,,---,0.00,VWS V13.01,2013-07-05 20:22:00,
2013-07-05 16:27:00,89.4,56.6,30.17,North,357,3.1,3.1,33,0.00,,---,0.00,VWS V13.01,2013-07-05 20:27:00,
2013-07-05 16:32:00,90.1,55.5,30.17,North,349,3.1,3.1,31,0.00,,---,0.00,VWS V13.01,2013-07-05 20:32:00,
2013-07-05 16:37:00,90.1,55.5,30.17,NNW,343,4.9,4.9,31,0.00,,---,0.00,VWS V13.01,2013-07-05 20:37:00,
2013-07-05 16:42:00,91.2,55.5,30.17,NNW,344,3.6,4.0,30,0.00,,---,0.00,VWS V13.01,2013-07-05 20:42:00,
2013-07-05 16:47:00,91.9,54.2,30.17,North,10,3.1,3.6,28,0.00,,---,0.00,VWS V13.01,2013-07-05 20:47:00,
2013-07-05 16:52:00,91.4,54.7,30.17,North,357,3.1,4.0,29,0.00,,---,0.00,VWS V13.01,2013-07-05 20:52:00,
2013-07-05 16:57:00,91.2,53.6,30.17,North,7,0.0,0.0,28,0.00,,---,0.00,VWS V13.01,2013-07-05 20:57:00,
2013-07-05 17:02:00,90.9,54.2,30.17,North,1,3.1,3.6,29,0.00,,---,0.00,VWS V13.01,2013-07-05 21:02:00,
2013-07-05 17:07:00,90.1,52.7,30.14,North,1,3.1,4.0,28,0.00,,---,0.00,VWS V13.01,2013-07-05 21:07:00,
2013-07-05 17:12:00,88.5,52.2,30.14,North,2,0.0,0.0,29,0.00,,---,0.00,VWS V13.01,2013-07-05 21:12:00,
2013-07-05 17:17:00,87.4,54.0,30.14,North,5,2.7,3.1,32,0.00,,---,0.00,VWS V13.01,2013-07-05 21:17:00,
2013-07-05 17:22:00,88.2,54.6,30.14,North,8,0.0,0.0,32,0.00,,---,0.00,VWS V13.01,2013-07-05 21:22:00,
2013-07-05 17:23:00,88.2,54.6,30.14,North,7,0.0,0.0,32,0.00,,---,0.00,VWS V13.01,2013-07-05 21:23:00,
2013-07-05 17:28:00,89.2,54.7,30.14,North,357,2.7,3.1,31,0.00,,---,0.00,VWS V13.01,2013-07-05 21:28:00,
2013-07-05 17:33:00,89.2,53.8,30.14,NNE,15,3.1,3.1,30,0.00,,---,0.00,VWS V13.01,2013-07-05 21:33:00,
2013-07-05 17:38:00,88.0,52.7,30.14,North,9,0.0,0.0,30,0.00,,---,0.00,VWS V13.01,2013-07-05 21:38:00,
2013-07-05 17:43:00,87.6,55.0,30.14,North,9,0.0,0.0,33,0.00,,---,0.00,VWS V13.01,2013-07-05 21:43:00,
2013-07-05 17:48:00,87.8,55.2,30.14,NNW,340,0.0,0.0,33,0.00,,---,0.00,VWS V13.01,2013-07-05 21:48:00,
2013-07-05 17:53:00,88.0,55.3,30.14,North,10,0.0,0.0,33,0.00,,---,0.00,VWS V13.01,2013-07-05 21:53:00,
2013-07-05 17:58:00,88.0,55.3,30.14,North,357,0.0,0.0,33,0.00,,---,0.00,VWS V13.01,2013-07-05 21:58:00,
2013-07-05 18:05:00,87.8,55.2,30.14,NE,35,0.0,0.0,33,0.00,,---,0.00,VWS V13.01,2013-07-05 22:05:00,
2013-07-05 18:10:00,87.4,55.7,30.14,NNE,33,0.0,0.0,34,0.00,,---,0.00,VWS V13.01,2013-07-05 22:10:00,
2013-07-05 18:15:00,87.1,56.1,30.14,NNE,33,0.0,0.0,35,0.00,,---,0.00,VWS V13.01,2013-07-05 22:15:00,
2013-07-05 18:20:00,86.7,55.8,30.14,SE,135,0.0,0.0,35,0.00,,---,0.00,VWS V13.01,2013-07-05 22:20:00,
2013-07-05 18:25:00,86.0,56.0,30.14,SSE,163,0.0,0.0,36,0.00,,---,0.00,VWS V13.01,2013-07-05 22:25:00,
2013-07-05 18:30:00,85.3,56.1,30.14,SSE,163,0.0,0.0,37,0.00,,---,0.00,VWS V13.01,2013-07-05 22:30:00,
2013-07-05 18:35:00,84.7,57.1,30.14,North,349,0.0,0.0,39,0.00,,---,0.00,VWS V13.01,2013-07-05 22:35:00,
2013-07-05 18:40:00,84.4,56.7,30.17,North,349,0.0,0.0,39,0.00,,---,0.00,VWS V13.01,2013-07-05 22:40:00,
2013-07-05 18:45:00,84.0,57.1,30.17,North,349,0.0,0.0,40,0.00,,---,0.00,VWS V13.01,2013-07-05 22:45:00,
2013-07-05 18:50:00,83.7,57.5,30.17,North,350,0.0,0.0,41,0.00,,---,0.00,VWS V13.01,2013-07-05 22:50:00,
2013-07-05 18:55:00,83.1,58.3,30.17,North,350,0.0,0.0,43,0.00,,---,0.00,VWS V13.01,2013-07-05 22:55:00,
2013-07-05 19:00:00,82.8,58.7,30.17,North,350,0.0,0.0,44,0.00,,---,0.00,VWS V13.01,2013-07-05 23:00:00,
2013-07-05 19:05:00,82.4,59.0,30.17,North,350,0.0,0.0,45,0.00,,---,0.00,VWS V13.01,2013-07-05 23:05:00,
2013-07-05 19:10:00,82.2,59.4,30.14,North,350,0.0,0.0,46,0.00,,---,0.00,VWS V13.01,2013-07-05 23:10:00,
2013-07-05 19:15:00,81.9,60.3,30.14,North,350,0.0,0.0,48,0.00,,---,0.00,VWS V13.01,2013-07-05 23:15:00,
2013-07-05 19:20:00,81.5,60.5,30.14,North,350,0.0,0.0,49,0.00,,---,0.00,VWS V13.01,2013-07-05 23:20:00,
2013-07-05 19:25:00,81.5,60.5,30.14,North,350,0.0,0.0,49,0.00,,---,0.00,VWS V13.01,2013-07-05 23:25:00,
2013-07-05 19:30:00,81.5,60.5,30.14,North,350,0.0,0.0,49,0.00,,---,0.00,VWS V13.01,2013-07-05 23:30:00,
2013-07-05 19:35:00,81.7,61.2,30.14,North,350,0.0,0.0,50,0.00,,---,0.00,VWS V13.01,2013-07-05 23:35:00,
2013-07-05 19:40:00,81.7,60.7,30.14,North,350,0.0,0.0,49,0.00,,---,0.00,VWS V13.01,2013-07-05 23:40:00,
2013-07-05 19:45:00,81.9,60.3,30.14,North,350,0.0,0.0,48,0.00,,---,0.00,VWS V13.01,2013-07-05 23:45:00,
2013-07-05 19:50:00,81.7,59.5,30.14,North,350,0.0,0.0,47,0.00,,---,0.00,VWS V13.01,2013-07-05 23:50:00,
2013-07-05 19:55:00,81.7,59.5,30.17,North,350,0.0,0.0,47,0.00,,---,0.00,VWS V13.01,2013-07-05 23:55:00,
2013-07-05 20:00:00,81.3,59.2,30.17,North,357,0.0,0.0,47,0.00,,---,0.00,VWS V13.01,2013-07-06 00:00:00,
2013-07-05 20:05:00,81.0,59.4,30.17,North,357,0.0,0.0,48,0.00,,---,0.00,VWS V13.01,2013-07-06 00:05:00,
2013-07-05 20:10:00,80.8,60.4,30.17,North,357,0.0,0.0,50,0.00,,---,0.00,VWS V13.01,2013-07-06 00:10:00,
2013-07-05 20:15:00,80.6,60.8,30.17,North,357,0.0,0.0,51,0.00,,---,0.00,VWS V13.01,2013-07-06 00:15:00,
2013-07-05 20:20:00,80.4,61.2,30.17,North,357,0.0,0.0,52,0.00,,---,0.00,VWS V13.01,2013-07-06 00:20:00,
2013-07-05 20:25:00,80.2,61.0,30.17,North,357,0.0,0.0,52,0.00,,---,0.00,VWS V13.01,2013-07-06 00:25:00,
2013-07-05 20:30:00,80.1,60.9,30.17,North,357,0.0,0.0,52,0.00,,---,0.00,VWS V13.01,2013-07-06 00:30:00,
2013-07-05 20:35:00,79.9,60.7,30.17,North,357,0.0,0.0,52,0.00,,---,0.00,VWS V13.01,2013-07-06 00:35:00,
2013-07-05 20:36:00,79.9,60.7,30.17,North,357,0.0,0.0,52,0.00,,---,0.00,VWS V13.01,2013-07-06 00:36:00,
2013-07-05 20:41:00,79.5,60.4,30.17,North,357,0.0,0.0,52,0.00,,---,0.00,VWS V13.01,2013-07-06 00:41:00,
2013-07-05 20:46:00,79.2,60.6,30.17,NNE,33,2.7,3.1,53,0.00,,---,0.00,VWS V13.01,2013-07-06 00:46:00,
2013-07-05 20:51:00,78.4,59.9,30.17,North,357,2.2,4.0,53,0.00,,---,0.00,VWS V13.01,2013-07-06 00:51:00,
2013-07-05 20:56:00,77.7,59.8,30.17,NNE,16,3.6,3.6,54,0.00,,---,0.00,VWS V13.01,2013-07-06 00:56:00,
2013-07-05 21:01:00,77.2,59.8,30.17,NNE,15,3.1,3.1,55,0.00,,---,0.00,VWS V13.01,2013-07-06 01:01:00,
2013-07-05 21:06:00,76.6,60.8,30.17,North,2,3.6,4.9,58,0.00,,---,0.00,VWS V13.01,2013-07-06 01:06:00,
2013-07-05 21:11:00,75.7,59.4,30.17,NNE,17,0.0,0.0,57,0.00,,---,0.00,VWS V13.01,2013-07-06 01:11:00,
2013-07-05 21:16:00,75.4,60.1,30.17,NNE,17,0.0,0.0,59,0.00,,---,0.00,VWS V13.01,2013-07-06 01:16:00,
2013-07-05 21:21:00,75.2,59.9,30.17,NNE,17,0.0,0.0,59,0.00,,---,0.00,VWS V13.01,2013-07-06 01:21:00,
2013-07-05 21:26:00,75.0,60.7,30.17,NNE,17,0.0,0.0,61,0.00,,---,0.00,VWS V13.01,2013-07-06 01:26:00,
2013-07-05 21:31:00,74.7,60.8,30.17,NNE,17,0.0,0.0,62,0.00,,---,0.00,VWS V13.01,2013-07-06 01:31:00,
2013-07-05 21:36:00,74.3,60.5,30.17,NNE,17,0.0,0.0,62,0.00,,---,0.00,VWS V13.01,2013-07-06 01:36:00,
2013-07-05 21:41:00,74.3,61.3,30.17,NNE,17,0.0,0.0,64,0.00,,---,0.00,VWS V13.01,2013-07-06 01:41:00,
2013-07-05 21:46:00,74.1,62.0,30.17,NNE,17,0.0,0.0,66,0.00,,---,0.00,VWS V13.01,2013-07-06 01:46:00,
2013-07-05 21:51:00,73.9,61.9,30.17,NNE,17,0.0,0.0,66,0.00,,---,0.00,VWS V13.01,2013-07-06 01:51:00,
2013-07-05 21:56:00,74.1,62.5,30.17,NNE,17,0.0,0.0,67,0.00,,---,0.00,VWS V13.01,2013-07-06 01:56:00,
2013-07-05 22:01:00,73.9,62.3,30.17,NNE,17,0.0,0.0,67,0.00,,---,0.00,VWS V13.01,2013-07-06 02:01:00,
2013-07-05 22:06:00,73.9,62.3,30.17,NNE,17,0.0,0.0,67,0.00,,---,0.00,VWS V13.01,2013-07-06 02:06:00,
2013-07-05 22:11:00,73.8,62.1,30.17,NNE,17,0.0,0.0,67,0.00,,---,0.00,VWS V13.01,2013-07-06 02:11:00,
2013-07-05 22:16:00,73.6,61.5,30.17,NNE,17,0.0,0.0,66,0.00,,---,0.00,VWS V13.01,2013-07-06 02:16:00,
2013-07-05 22:21:00,73.4,61.4,30.20,NNE,17,0.0,0.0,66,0.00,,---,0.00,VWS V13.01,2013-07-06 02:21:00,
2013-07-05 22:26:00,73.2,61.6,30.20,NNE,17,0.0,0.0,67,0.00,,---,0.00,VWS V13.01,2013-07-06 02:26:00,
2013-07-05 22:31:00,73.0,61.5,30.20,NNE,17,0.0,0.0,67,0.00,,---,0.00,VWS V13.01,2013-07-06 02:31:00,
2013-07-05 22:36:00,73.0,61.9,30.20,NNE,17,0.0,0.0,68,0.00,,---,0.00,VWS V13.01,2013-07-06 02:36:00,
2013-07-05 22:41:00,73.0,61.5,30.20,NNE,17,0.0,0.0,67,0.00,,---,0.00,VWS V13.01,2013-07-06 02:41:00,
2013-07-05 22:47:00,72.9,61.3,30.20,NNE,17,0.0,0.0,67,0.00,,---,0.00,VWS V13.01,2013-07-06 02:47:00,
2013-07-05 22:52:00,72.9,61.7,30.20,NNE,18,0.0,0.0,68,0.00,,---,0.00,VWS V13.01,2013-07-06 02:52:00,
2013-07-05 22:57:00,72.9,61.7,30.20,NNE,18,0.0,0.0,68,0.00,,---,0.00,VWS V13.01,2013-07-06 02:57:00,
2013-07-05 23:02:00,72.7,61.5,30.20,NNE,18,0.0,0.0,68,0.00,,---,0.00,VWS V13.01,2013-07-06 03:02:00,
2013-07-05 23:07:00,72.7,61.5,30.20,NNE,18,0.0,0.0,68,0.00,,---,0.00,VWS V13.01,2013-07-06 03:07:00,
2013-07-05 23:12:00,72.7,61.5,30.20,NNE,18,0.0,0.0,68,0.00,,---,0.00,VWS V13.01,2013-07-06 03:12:00,
2013-07-05 23:17:00,72.7,61.5,30.20,NNE,18,0.0,0.0,68,0.00,,---,0.00,VWS V13.01,2013-07-06 03:17:00,
2013-07-05 23:22:00,72.7,61.5,30.20,NNE,18,0.0,0.0,68,0.00,,---,0.00,VWS V13.01,2013-07-06 03:22:00,
2013-07-05 23:27:00,72.5,61.3,30.20,NNE,18,0.0,0.0,68,0.00,,---,0.00,VWS V13.01,2013-07-06 03:27:00,
2013-07-05 23:32:00,72.5,61.3,30.20,NNE,18,0.0,0.0,68,0.00,,---,0.00,VWS V13.01,2013-07-06 03:32:00,
2013-07-05 23:37:00,72.5,61.3,30.20,NNE,18,0.0,0.0,68,0.00,,---,0.00,VWS V13.01,2013-07-06 03:37:00,
2013-07-05 23:42:00,72.3,61.2,30.20,NNE,18,0.0,0.0,68,0.00,,---,0.00,VWS V13.01,2013-07-06 03:42:00,
2013-07-05 23:47:00,72.3,61.6,30.20,NNE,18,0.0,0.0,69,0.00,,---,0.00,VWS V13.01,2013-07-06 03:47:00,
2013-07-05 23:52:00,72.1,61.4,30.20,NNE,18,0.0,0.0,69,0.00,,---,0.00,VWS V13.01,2013-07-06 03:52:00,
2013-07-05 23:57:00,72.1,61.4,30.20,NNE,18,0.0,0.0,69,0.00,,---,0.00,VWS V13.01,2013-07-06 03:57:00,